createdAt,value
2018-07-26T00:00:56.950Z,22.78
2018-07-26T00:01:56.878Z,22.78
2018-07-26T00:02:56.810Z,22.84
2018-07-26T00:03:56.735Z,22.66
2018-07-26T00:04:56.669Z,22.73
2018-07-26T00:05:56.609Z,22.69
2018-07-26T00:06:56.532Z,22.68
2018-07-26T00:07:56.452Z,22.72
2018-07-26T00:08:56.379Z,22.72
2018-07-26T00:09:56.307Z,22.69
2018-07-26T00:10:56.236Z,22.63
2018-07-26T00:11:56.168Z,22.57
2018-07-26T00:12:56.092Z,22.63
2018-07-26T00:13:56.024Z,22.66
2018-07-26T00:14:55.951Z,22.57
2018-07-26T00:15:55.878Z,22.47
2018-07-26T00:16:55.812Z,22.50
2018-07-26T00:17:55.765Z,22.48
2018-07-26T00:18:55.668Z,22.38
2018-07-26T00:19:55.589Z,22.41
2018-07-26T00:20:55.532Z,22.38
2018-07-26T00:21:55.451Z,22.28
2018-07-26T00:22:55.378Z,22.29
2018-07-26T00:23:55.303Z,22.20
2018-07-26T00:24:55.244Z,22.14
2018-07-26T00:25:55.165Z,22.15
2018-07-26T00:26:55.097Z,22.20
2018-07-26T00:27:55.032Z,22.08
2018-07-26T00:28:54.946Z,22.14
2018-07-26T00:29:54.875Z,22.07
2018-07-26T00:30:54.802Z,22.04
2018-07-26T00:31:54.732Z,22.06
2018-07-26T00:32:54.675Z,22.06
2018-07-26T00:33:54.589Z,22.06
2018-07-26T00:34:54.513Z,22.02
2018-07-26T00:35:54.457Z,22.08
2018-07-26T00:36:54.368Z,22.10
2018-07-26T00:37:54.313Z,22.10
2018-07-26T00:38:54.239Z,22.10
2018-07-26T00:39:54.153Z,22.02
2018-07-26T00:40:54.082Z,22.08
2018-07-26T00:41:54.014Z,22.02
2018-07-26T00:42:53.937Z,22.11
2018-07-26T00:43:53.867Z,22.08
2018-07-26T00:44:53.795Z,22.11
2018-07-26T00:45:53.721Z,22.11
2018-07-26T00:46:53.649Z,22.00
2018-07-26T00:47:53.580Z,22.00
2018-07-26T00:48:53.609Z,22.08
2018-07-26T00:49:53.462Z,22.14
2018-07-26T00:50:53.363Z,22.11
2018-07-26T00:51:53.292Z,22.08
2018-07-26T00:52:53.217Z,22.14
2018-07-26T00:53:53.145Z,22.13
2018-07-26T00:54:53.079Z,21.99
2018-07-26T00:55:53.003Z,22.08
2018-07-26T00:56:52.930Z,22.00
2018-07-26T00:57:52.855Z,21.95
2018-07-26T00:58:52.789Z,21.93
2018-07-26T00:59:52.711Z,21.95
2018-07-26T01:00:52.641Z,21.95
2018-07-26T01:01:52.571Z,21.92
2018-07-26T01:02:52.494Z,21.85
2018-07-26T01:03:52.427Z,21.89
2018-07-26T01:04:52.351Z,21.89
2018-07-26T01:05:52.284Z,21.80
2018-07-26T01:06:52.206Z,21.82
2018-07-26T01:07:52.152Z,21.80
2018-07-26T01:08:52.065Z,21.83
2018-07-26T01:09:51.997Z,21.77
2018-07-26T01:10:51.921Z,21.80
2018-07-26T01:11:51.866Z,21.70
2018-07-26T01:12:51.787Z,21.82
2018-07-26T01:13:51.704Z,21.80
2018-07-26T01:14:51.646Z,21.80
2018-07-26T01:15:51.557Z,21.82
2018-07-26T01:16:51.488Z,21.80
2018-07-26T01:17:51.412Z,21.76
2018-07-26T01:18:51.345Z,21.75
2018-07-26T01:19:51.274Z,21.76
2018-07-26T01:20:51.200Z,21.77
2018-07-26T01:21:51.129Z,21.76
2018-07-26T01:22:51.055Z,21.73
2018-07-26T01:23:50.983Z,21.80
2018-07-26T01:24:50.912Z,21.73
2018-07-26T01:25:50.845Z,21.73
2018-07-26T01:26:50.768Z,21.73
2018-07-26T01:27:50.693Z,21.76
2018-07-26T01:28:50.620Z,21.77
2018-07-26T01:29:50.548Z,21.75
2018-07-26T01:30:50.476Z,21.70
2018-07-26T01:31:50.400Z,21.70
2018-07-26T01:32:50.339Z,21.75
2018-07-26T01:33:50.283Z,21.69
2018-07-26T01:34:50.190Z,21.62
2018-07-26T01:35:50.122Z,21.57
2018-07-26T01:36:50.041Z,21.66
2018-07-26T01:37:49.972Z,21.61
2018-07-26T01:38:49.899Z,21.60
2018-07-26T01:39:49.824Z,21.67
2018-07-26T01:40:49.750Z,21.62
2018-07-26T01:41:49.701Z,21.69
2018-07-26T01:42:49.619Z,21.69
2018-07-26T01:43:49.536Z,21.69
2018-07-26T01:44:49.466Z,21.61
2018-07-26T01:45:49.390Z,21.66
2018-07-26T01:46:49.346Z,21.60
2018-07-26T01:47:49.243Z,21.62
2018-07-26T01:48:49.175Z,21.67
2018-07-26T01:49:49.106Z,21.62
2018-07-26T01:50:49.029Z,21.60
2018-07-26T01:51:48.968Z,21.48
2018-07-26T01:52:48.910Z,21.54
2018-07-26T01:53:48.814Z,21.46
2018-07-26T01:54:48.741Z,21.50
2018-07-26T01:55:48.668Z,21.45
2018-07-26T01:56:48.596Z,21.45
2018-07-26T01:57:48.522Z,21.52
2018-07-26T01:58:48.450Z,21.43
2018-07-26T01:59:48.380Z,21.45
2018-07-26T02:00:48.304Z,21.50
2018-07-26T02:01:48.313Z,21.51
2018-07-26T02:02:48.161Z,21.46
2018-07-26T02:03:48.094Z,21.51
2018-07-26T02:04:48.040Z,21.51
2018-07-26T02:05:47.946Z,21.51
2018-07-26T02:06:47.870Z,21.45
2018-07-26T02:07:47.797Z,21.43
2018-07-26T02:08:47.724Z,21.39
2018-07-26T02:09:47.661Z,21.32
2018-07-26T02:10:47.581Z,21.27
2018-07-26T02:11:47.507Z,21.35
2018-07-26T02:12:47.434Z,21.27
2018-07-26T02:13:47.363Z,21.21
2018-07-26T02:14:47.288Z,21.27
2018-07-26T02:15:47.218Z,21.33
2018-07-26T02:16:47.151Z,21.22
2018-07-26T02:17:47.092Z,21.27
2018-07-26T02:18:47.018Z,21.25
2018-07-26T02:19:46.930Z,21.29
2018-07-26T02:20:46.856Z,21.24
2018-07-26T02:21:46.782Z,21.18
2018-07-26T02:22:46.726Z,21.21
2018-07-26T02:23:46.644Z,21.17
2018-07-26T02:24:46.563Z,21.20
2018-07-26T02:25:46.493Z,21.18
2018-07-26T02:26:46.433Z,21.15
2018-07-26T02:27:46.346Z,21.12
2018-07-26T02:28:46.276Z,21.05
2018-07-26T02:29:46.203Z,21.05
2018-07-26T02:30:46.163Z,21.03
2018-07-26T02:31:46.056Z,21.11
2018-07-26T02:32:46.241Z,21.06
2018-07-26T02:33:45.912Z,21.05
2018-07-26T02:34:45.841Z,21.07
2018-07-26T02:35:45.766Z,21.15
2018-07-26T02:36:45.765Z,21.11
2018-07-26T02:37:45.623Z,21.07
2018-07-26T02:38:45.550Z,21.05
2018-07-26T02:39:45.473Z,21.09
2018-07-26T02:40:45.412Z,21.00
2018-07-26T02:41:45.338Z,21.05
2018-07-26T02:42:45.255Z,21.03
2018-07-26T02:43:45.185Z,21.07
2018-07-26T02:44:45.122Z,21.11
2018-07-26T02:45:45.050Z,21.05
2018-07-26T02:46:44.971Z,21.05
2018-07-26T02:47:44.898Z,21.02
2018-07-26T02:48:44.820Z,21.06
2018-07-26T02:49:44.747Z,21.07
2018-07-26T02:50:44.678Z,21.12
2018-07-26T02:51:44.602Z,21.14
2018-07-26T02:52:44.535Z,21.07
2018-07-26T02:53:44.469Z,21.03
2018-07-26T02:54:44.385Z,21.06
2018-07-26T02:55:44.329Z,20.99
2018-07-26T02:56:44.243Z,20.97
2018-07-26T02:57:44.167Z,20.97
2018-07-26T02:58:44.096Z,20.84
2018-07-26T02:59:44.025Z,20.88
2018-07-26T03:00:43.955Z,20.87
2018-07-26T03:01:43.879Z,20.81
2018-07-26T03:02:43.811Z,20.92
2018-07-26T03:03:43.734Z,20.78
2018-07-26T03:04:43.659Z,20.78
2018-07-26T03:05:43.588Z,20.78
2018-07-26T03:06:43.517Z,20.82
2018-07-26T03:07:43.441Z,20.77
2018-07-26T03:08:43.368Z,20.84
2018-07-26T03:09:43.300Z,20.72
2018-07-26T03:10:43.225Z,20.88
2018-07-26T03:11:43.148Z,20.81
2018-07-26T03:12:43.075Z,20.87
2018-07-26T03:13:43.001Z,20.87
2018-07-26T03:14:42.930Z,20.78
2018-07-26T03:15:42.859Z,20.93
2018-07-26T03:16:42.790Z,20.96
2018-07-26T03:17:42.720Z,20.77
2018-07-26T03:18:42.643Z,20.80
2018-07-26T03:19:42.564Z,20.82
2018-07-26T03:20:42.521Z,20.74
2018-07-26T03:21:42.418Z,20.82
2018-07-26T03:22:42.353Z,20.78
2018-07-26T03:23:42.273Z,20.78
2018-07-26T03:24:42.201Z,20.78
2018-07-26T03:25:42.146Z,20.78
2018-07-26T03:26:42.064Z,20.77
2018-07-26T03:27:41.982Z,20.77
2018-07-26T03:28:41.911Z,20.81
2018-07-26T03:29:41.837Z,20.72
2018-07-26T03:30:41.767Z,20.81
2018-07-26T03:31:41.689Z,20.72
2018-07-26T03:32:41.617Z,20.84
2018-07-26T03:33:41.548Z,20.78
2018-07-26T03:34:41.472Z,20.75
2018-07-26T03:35:41.401Z,20.62
2018-07-26T03:36:41.326Z,20.69
2018-07-26T03:37:41.255Z,20.65
2018-07-26T03:38:41.180Z,20.65
2018-07-26T03:39:41.117Z,20.67
2018-07-26T03:40:41.033Z,20.69
2018-07-26T03:41:40.963Z,20.69
2018-07-26T03:42:40.907Z,20.59
2018-07-26T03:43:40.832Z,20.52
2018-07-26T03:44:40.754Z,20.58
2018-07-26T03:45:40.667Z,20.59
2018-07-26T03:46:40.600Z,20.58
2018-07-26T03:47:40.538Z,20.60
2018-07-26T03:48:40.449Z,20.55
2018-07-26T03:49:40.379Z,20.50
2018-07-26T03:50:40.303Z,20.47
2018-07-26T03:51:40.238Z,20.48
2018-07-26T03:52:40.208Z,20.44
2018-07-26T03:53:40.084Z,20.47
2018-07-26T03:54:40.010Z,20.43
2018-07-26T03:55:39.936Z,20.43
2018-07-26T03:56:39.868Z,20.40
2018-07-26T03:57:39.798Z,20.41
2018-07-26T03:58:39.725Z,20.43
2018-07-26T03:59:39.644Z,20.36
2018-07-26T04:00:39.575Z,20.37
2018-07-26T04:01:39.514Z,20.39
2018-07-26T04:02:39.427Z,20.41
2018-07-26T04:03:39.352Z,20.43
2018-07-26T04:04:39.279Z,20.37
2018-07-26T04:05:39.223Z,20.37
2018-07-26T04:06:39.142Z,20.37
2018-07-26T04:07:39.060Z,20.34
2018-07-26T04:08:38.988Z,20.36
2018-07-26T04:09:38.918Z,20.41
2018-07-26T04:10:38.842Z,20.39
2018-07-26T04:11:38.769Z,20.40
2018-07-26T04:12:38.703Z,20.43
2018-07-26T04:13:38.623Z,20.37
2018-07-26T04:14:38.550Z,20.36
2018-07-26T04:15:38.473Z,20.39
2018-07-26T04:16:38.401Z,20.36
2018-07-26T04:17:38.331Z,20.37
2018-07-26T04:18:38.256Z,20.39
2018-07-26T04:19:38.192Z,20.32
2018-07-26T04:20:38.118Z,20.39
2018-07-26T04:21:38.042Z,20.24
2018-07-26T04:22:37.966Z,20.31
2018-07-26T04:23:37.908Z,20.18
2018-07-26T04:24:37.833Z,20.22
2018-07-26T04:25:37.750Z,20.22
2018-07-26T04:26:37.725Z,20.13
2018-07-26T04:27:37.618Z,20.11
2018-07-26T04:28:37.577Z,20.16
2018-07-26T04:29:37.472Z,20.06
2018-07-26T04:30:37.422Z,20.06
2018-07-26T04:31:37.326Z,20.06
2018-07-26T04:32:37.231Z,20.06
2018-07-26T04:33:37.212Z,20.04
2018-07-26T04:34:37.091Z,20.21
2018-07-26T04:35:37.071Z,20.18
2018-07-26T04:36:36.947Z,20.21
2018-07-26T04:37:36.878Z,20.25
2018-07-26T04:38:37.763Z,20.26
2018-07-26T04:39:36.784Z,20.14
2018-07-26T04:40:36.711Z,20.18
2018-07-26T04:41:36.635Z,20.25
2018-07-26T04:42:36.543Z,20.22
2018-07-26T04:43:36.434Z,20.37
2018-07-26T04:44:36.419Z,20.21
2018-07-26T04:45:36.356Z,20.34
2018-07-26T04:46:36.271Z,20.21
2018-07-26T04:47:36.195Z,20.18
2018-07-26T04:48:36.117Z,20.25
2018-07-26T04:49:36.041Z,20.29
2018-07-26T04:50:35.921Z,20.26
2018-07-26T04:51:35.898Z,20.31
2018-07-26T04:52:35.826Z,20.28
2018-07-26T04:53:35.762Z,20.26
2018-07-26T04:54:35.721Z,20.22
2018-07-26T04:55:35.559Z,20.32
2018-07-26T04:56:35.540Z,20.22
2018-07-26T04:57:35.481Z,20.40
2018-07-26T04:58:35.409Z,20.39
2018-07-26T04:59:35.253Z,20.37
2018-07-26T05:00:35.181Z,20.47
2018-07-26T05:01:35.108Z,20.47
2018-07-26T05:02:35.041Z,20.50
2018-07-26T05:03:34.962Z,20.56
2018-07-26T05:04:34.909Z,20.52
2018-07-26T05:05:34.817Z,20.58
2018-07-26T05:06:34.745Z,20.52
2018-07-26T05:07:34.686Z,20.59
2018-07-26T05:08:34.598Z,20.66
2018-07-26T05:09:34.537Z,20.65
2018-07-26T05:10:34.454Z,20.72
2018-07-26T05:11:34.380Z,20.67
2018-07-26T05:12:34.306Z,20.74
2018-07-26T05:13:34.242Z,20.69
2018-07-26T05:14:34.164Z,20.74
2018-07-26T05:15:34.088Z,20.74
2018-07-26T05:16:34.014Z,20.75
2018-07-26T05:17:33.942Z,20.74
2018-07-26T05:18:33.955Z,20.74
2018-07-26T05:19:33.792Z,20.75
2018-07-26T05:20:33.740Z,20.77
2018-07-26T05:21:33.648Z,20.77
2018-07-26T05:22:33.577Z,20.77
2018-07-26T05:23:33.504Z,20.85
2018-07-26T05:24:33.428Z,20.95
2018-07-26T05:25:33.356Z,20.84
2018-07-26T05:26:33.282Z,20.95
2018-07-26T05:27:33.227Z,20.97
2018-07-26T05:28:33.146Z,20.96
2018-07-26T05:29:33.068Z,21.02
2018-07-26T05:30:33.009Z,21.07
2018-07-26T05:31:32.966Z,21.03
2018-07-26T05:32:32.860Z,21.11
2018-07-26T05:33:32.788Z,21.11
2018-07-26T05:34:32.702Z,21.20
2018-07-26T05:35:32.630Z,21.18
2018-07-26T05:36:32.556Z,21.27
2018-07-26T05:37:32.513Z,21.30
2018-07-26T05:38:32.417Z,21.35
2018-07-26T05:39:32.340Z,21.29
2018-07-26T05:40:32.286Z,21.35
2018-07-26T05:41:32.195Z,21.36
2018-07-26T05:42:32.126Z,21.30
2018-07-26T05:43:32.048Z,21.43
2018-07-26T05:44:31.976Z,21.46
2018-07-26T05:45:31.908Z,21.51
2018-07-26T05:46:31.856Z,21.52
2018-07-26T05:47:31.759Z,21.55
2018-07-26T05:48:31.688Z,21.61
2018-07-26T05:49:31.612Z,21.57
2018-07-26T05:50:31.546Z,21.51
2018-07-26T05:51:31.468Z,21.57
2018-07-26T05:52:31.436Z,21.52
2018-07-26T05:53:31.341Z,21.64
2018-07-26T05:54:31.253Z,21.54
2018-07-26T05:55:31.180Z,21.62
2018-07-26T05:56:31.107Z,21.62
2018-07-26T05:57:31.037Z,21.61
2018-07-26T05:58:30.965Z,21.76
2018-07-26T05:59:30.889Z,21.66
2018-07-26T06:00:30.818Z,21.75
2018-07-26T06:01:30.753Z,21.79
2018-07-26T06:02:30.674Z,21.72
2018-07-26T06:03:30.600Z,21.79
2018-07-26T06:04:30.541Z,21.80
2018-07-26T06:05:30.456Z,21.77
2018-07-26T06:06:30.384Z,21.89
2018-07-26T06:07:30.312Z,21.93
2018-07-26T06:08:30.239Z,21.96
2018-07-26T06:09:30.177Z,22.04
2018-07-26T06:10:30.098Z,22.06
2018-07-26T06:11:30.026Z,22.00
2018-07-26T06:12:29.961Z,22.06
2018-07-26T06:13:29.882Z,22.00
2018-07-26T06:14:29.808Z,22.08
2018-07-26T06:15:29.751Z,22.08
2018-07-26T06:16:29.673Z,22.13
2018-07-26T06:17:29.671Z,22.06
2018-07-26T06:18:29.517Z,22.18
2018-07-26T06:19:29.446Z,22.15
2018-07-26T06:20:29.432Z,22.17
2018-07-26T06:21:29.304Z,22.26
2018-07-26T06:22:29.232Z,22.36
2018-07-26T06:23:29.171Z,22.29
2018-07-26T06:24:29.088Z,22.33
2018-07-26T06:25:29.016Z,22.33
2018-07-26T06:26:28.944Z,22.35
2018-07-26T06:27:28.871Z,22.41
2018-07-26T06:28:28.801Z,22.41
2018-07-26T06:29:28.737Z,22.45
2018-07-26T06:30:28.659Z,22.45
2018-07-26T06:31:28.637Z,22.47
2018-07-26T06:32:28.513Z,22.48
2018-07-26T06:33:28.504Z,22.55
2018-07-26T06:34:28.380Z,22.60
2018-07-26T06:35:28.298Z,22.65
2018-07-26T06:36:28.224Z,22.63
2018-07-26T06:37:28.157Z,22.55
2018-07-26T06:38:28.082Z,22.69
2018-07-26T06:39:28.033Z,22.63
2018-07-26T06:40:27.936Z,22.69
2018-07-26T06:41:27.894Z,22.69
2018-07-26T06:42:27.806Z,22.80
2018-07-26T06:43:27.723Z,22.83
2018-07-26T06:44:27.658Z,22.78
2018-07-26T06:45:27.593Z,22.76
2018-07-26T06:46:27.510Z,22.93
2018-07-26T06:47:27.437Z,22.90
2018-07-26T06:48:27.364Z,22.84
2018-07-26T06:49:27.298Z,22.93
2018-07-26T06:50:27.232Z,23.00
2018-07-26T06:51:27.151Z,23.03
2018-07-26T06:52:27.080Z,23.03
2018-07-26T06:53:27.012Z,23.02
2018-07-26T06:54:26.959Z,23.00
2018-07-26T06:55:26.865Z,23.03
2018-07-26T06:56:26.792Z,23.23
2018-07-26T06:57:26.771Z,23.20
2018-07-26T06:58:26.653Z,23.23
2018-07-26T06:59:26.593Z,23.18
2018-07-26T07:00:26.509Z,23.25
2018-07-26T07:01:26.436Z,23.40
2018-07-26T07:02:26.384Z,23.37
2018-07-26T07:03:26.298Z,23.37
2018-07-26T07:04:26.275Z,23.50
2018-07-26T07:05:26.160Z,23.51
2018-07-26T07:06:26.086Z,23.50
2018-07-26T07:07:26.019Z,23.54
2018-07-26T07:08:25.940Z,23.55
2018-07-26T07:09:25.868Z,23.55
2018-07-26T07:10:25.801Z,23.59
2018-07-26T07:11:25.740Z,23.65
2018-07-26T07:12:25.663Z,23.66
2018-07-26T07:13:25.584Z,23.69
2018-07-26T07:14:25.511Z,23.81
2018-07-26T07:15:25.440Z,23.83
2018-07-26T07:16:25.377Z,23.77
2018-07-26T07:17:25.299Z,23.81
2018-07-26T07:18:25.227Z,23.81
2018-07-26T07:19:25.156Z,23.92
2018-07-26T07:20:25.104Z,23.91
2018-07-26T07:21:25.017Z,23.88
2018-07-26T07:22:24.947Z,23.99
2018-07-26T07:23:24.888Z,23.98
2018-07-26T07:24:24.807Z,24.02
2018-07-26T07:25:24.732Z,24.10
2018-07-26T07:26:24.661Z,24.16
2018-07-26T07:27:24.592Z,24.16
2018-07-26T07:28:24.522Z,24.20
2018-07-26T07:29:24.447Z,24.23
2018-07-26T07:30:24.382Z,24.28
2018-07-26T07:31:24.328Z,24.29
2018-07-26T07:32:24.272Z,24.29
2018-07-26T07:33:24.169Z,24.39
2018-07-26T07:34:24.097Z,24.39
2018-07-26T07:35:24.050Z,24.42
2018-07-26T07:36:23.955Z,24.51
2018-07-26T07:37:23.885Z,24.48
2018-07-26T07:38:23.815Z,24.57
2018-07-26T07:39:23.744Z,24.57
2018-07-26T07:40:23.675Z,24.63
2018-07-26T07:41:23.611Z,24.69
2018-07-26T07:42:23.531Z,24.73
2018-07-26T07:43:23.497Z,24.76
2018-07-26T07:44:23.395Z,24.73
2018-07-26T07:45:23.320Z,24.73
2018-07-26T07:46:23.251Z,24.84
2018-07-26T07:47:23.281Z,24.78
2018-07-26T07:48:23.122Z,24.89
2018-07-26T07:49:23.039Z,24.89
2018-07-26T07:50:22.971Z,24.96
2018-07-26T07:51:22.915Z,24.96
2018-07-26T07:52:22.828Z,24.98
2018-07-26T07:53:22.760Z,25.08
2018-07-26T07:54:22.692Z,25.18
2018-07-26T07:55:22.617Z,25.18
2018-07-26T07:56:22.546Z,25.22
2018-07-26T07:57:22.489Z,25.16
2018-07-26T07:58:22.409Z,25.23
2018-07-26T07:59:22.389Z,25.26
2018-07-26T08:00:22.265Z,25.26
2018-07-26T08:01:22.206Z,25.22
2018-07-26T08:02:22.128Z,25.25
2018-07-26T08:03:22.057Z,25.29
2018-07-26T08:04:21.985Z,25.33
2018-07-26T08:05:21.967Z,25.40
2018-07-26T08:06:21.846Z,25.43
2018-07-26T08:07:21.773Z,25.36
2018-07-26T08:08:21.705Z,25.36
2018-07-26T08:09:21.657Z,25.40
2018-07-26T08:10:21.565Z,25.48
2018-07-26T08:11:21.500Z,25.53
2018-07-26T08:12:21.425Z,25.59
2018-07-26T08:13:21.356Z,25.66
2018-07-26T08:14:21.285Z,25.65
2018-07-26T08:15:21.218Z,25.68
2018-07-26T08:16:21.147Z,25.69
2018-07-26T08:17:21.076Z,25.70
2018-07-26T08:18:21.007Z,25.75
2018-07-26T08:19:20.973Z,25.75
2018-07-26T08:20:20.868Z,25.77
2018-07-26T08:21:20.881Z,25.80
2018-07-26T08:22:20.742Z,25.81
2018-07-26T08:23:20.656Z,25.85
2018-07-26T08:24:20.599Z,25.87
2018-07-26T08:25:20.537Z,25.93
2018-07-26T08:26:20.456Z,25.93
2018-07-26T08:27:20.438Z,25.99
2018-07-26T08:28:20.369Z,25.96
2018-07-26T08:29:20.303Z,25.99
2018-07-26T08:30:20.235Z,26.06
2018-07-26T08:31:20.137Z,26.10
2018-07-26T08:32:20.085Z,26.21
2018-07-26T08:33:21.875Z,26.23
2018-07-26T08:34:19.911Z,26.16
2018-07-26T08:35:19.886Z,26.28
2018-07-26T08:36:19.766Z,26.29
2018-07-26T08:37:19.763Z,26.29
2018-07-26T08:38:19.683Z,26.40
2018-07-26T08:39:19.611Z,26.36
2018-07-26T08:40:19.538Z,26.31
2018-07-26T08:41:19.460Z,26.44
2018-07-26T08:42:19.357Z,26.52
2018-07-26T08:43:19.334Z,26.48
2018-07-26T08:44:19.261Z,26.44
2018-07-26T08:45:19.165Z,26.51
2018-07-26T08:46:19.875Z,26.55
2018-07-26T08:47:19.870Z,26.53
2018-07-26T08:48:18.990Z,26.52
2018-07-26T08:49:18.901Z,26.45
2018-07-26T08:50:18.859Z,26.58
2018-07-26T08:51:18.784Z,26.56
2018-07-26T08:52:18.771Z,26.59
2018-07-26T08:53:18.634Z,26.58
2018-07-26T08:54:18.600Z,26.59
2018-07-26T08:55:18.507Z,26.48
2018-07-26T08:56:18.432Z,26.58
2018-07-26T08:57:18.307Z,26.53
2018-07-26T08:58:18.886Z,26.60
2018-07-26T08:59:18.223Z,26.62
2018-07-26T09:00:18.165Z,26.62
2018-07-26T09:01:18.092Z,26.63
2018-07-26T09:02:18.007Z,26.60
2018-07-26T09:03:17.956Z,26.62
2018-07-26T09:04:18.382Z,26.74
2018-07-26T09:05:17.815Z,26.75
2018-07-26T09:06:17.748Z,26.74
2018-07-26T09:07:17.675Z,26.74
2018-07-26T09:08:17.571Z,26.75
2018-07-26T09:09:18.382Z,26.75
2018-07-26T09:10:17.464Z,26.81
2018-07-26T09:11:17.377Z,26.84
2018-07-26T09:12:17.345Z,26.83
2018-07-26T09:13:17.254Z,26.84
2018-07-26T09:14:17.173Z,26.83
2018-07-26T09:15:17.104Z,26.81
2018-07-26T09:16:17.053Z,26.84
2018-07-26T09:17:17.031Z,26.92
2018-07-26T09:18:16.914Z,26.88
2018-07-26T09:19:16.832Z,26.97
2018-07-26T09:20:16.766Z,27.03
2018-07-26T09:21:16.690Z,27.10
2018-07-26T09:22:16.620Z,27.07
2018-07-26T09:23:16.552Z,27.10
2018-07-26T09:24:16.487Z,27.12
2018-07-26T09:25:16.420Z,27.11
2018-07-26T09:26:16.393Z,27.14
2018-07-26T09:27:16.280Z,27.11
2018-07-26T09:28:16.171Z,27.11
2018-07-26T09:29:16.086Z,27.21
2018-07-26T09:30:16.018Z,27.20
2018-07-26T09:31:15.949Z,27.29
2018-07-26T09:32:15.880Z,27.35
2018-07-26T09:33:15.847Z,27.39
2018-07-26T09:34:15.742Z,27.37
2018-07-26T09:35:15.673Z,27.40
2018-07-26T09:36:15.606Z,27.47
2018-07-26T09:37:15.562Z,27.47
2018-07-26T09:38:15.474Z,27.49
2018-07-26T09:39:15.401Z,27.45
2018-07-26T09:40:15.334Z,27.54
2018-07-26T09:41:15.302Z,27.58
2018-07-26T09:42:15.192Z,27.49
2018-07-26T09:43:15.130Z,27.48
2018-07-26T09:44:15.054Z,27.52
2018-07-26T09:45:14.998Z,27.47
2018-07-26T09:46:14.915Z,27.52
2018-07-26T09:47:14.899Z,27.55
2018-07-26T09:48:14.779Z,27.54
2018-07-26T09:49:14.715Z,27.63
2018-07-26T09:50:14.645Z,27.59
2018-07-26T09:51:14.574Z,27.60
2018-07-26T09:52:14.505Z,27.65
2018-07-26T09:53:14.436Z,27.70
2018-07-26T09:54:14.371Z,27.68
2018-07-26T09:55:14.299Z,27.78
2018-07-26T09:56:14.232Z,27.78
2018-07-26T09:57:14.162Z,27.78
2018-07-26T09:58:14.095Z,27.75
2018-07-26T09:59:14.034Z,27.78
2018-07-26T10:00:14.008Z,27.83
2018-07-26T10:01:13.886Z,27.82
2018-07-26T10:02:13.820Z,27.75
2018-07-26T10:03:13.752Z,27.74
2018-07-26T10:04:13.703Z,27.71
2018-07-26T10:05:13.615Z,27.70
2018-07-26T10:06:13.544Z,27.74
2018-07-26T10:07:13.477Z,27.73
2018-07-26T10:08:13.409Z,27.78
2018-07-26T10:09:13.340Z,27.87
2018-07-26T10:10:13.272Z,27.89
2018-07-26T10:11:13.206Z,27.95
2018-07-26T10:12:13.140Z,27.90
2018-07-26T10:13:13.069Z,27.95
2018-07-26T10:14:13.001Z,28.02
2018-07-26T10:15:12.934Z,28.08
2018-07-26T10:16:12.871Z,28.11
2018-07-26T10:17:12.798Z,28.11
2018-07-26T10:18:12.725Z,28.10
2018-07-26T10:19:12.658Z,28.20
2018-07-26T10:20:12.688Z,28.32
2018-07-26T10:21:12.521Z,28.29
2018-07-26T10:22:12.460Z,28.26
2018-07-26T10:23:12.388Z,28.35
2018-07-26T10:24:12.315Z,28.25
2018-07-26T10:25:12.248Z,28.29
2018-07-26T10:26:12.181Z,28.26
2018-07-26T10:27:12.111Z,28.25
2018-07-26T10:28:12.043Z,28.23
2018-07-26T10:29:11.974Z,28.27
2018-07-26T10:30:11.923Z,28.30
2018-07-26T10:31:11.837Z,28.37
2018-07-26T10:32:11.768Z,28.41
2018-07-26T10:33:11.738Z,28.44
2018-07-26T10:34:11.648Z,28.51
2018-07-26T10:35:11.567Z,28.60
2018-07-26T10:36:11.504Z,28.51
2018-07-26T10:37:11.485Z,28.64
2018-07-26T10:38:11.363Z,28.81
2018-07-26T10:39:11.293Z,28.82
2018-07-26T10:40:11.245Z,28.88
2018-07-26T10:41:11.161Z,28.81
2018-07-26T10:42:11.091Z,28.97
2018-07-26T10:43:11.025Z,29.02
2018-07-26T10:44:10.954Z,29.07
2018-07-26T10:45:10.895Z,29.10
2018-07-26T10:46:10.821Z,29.10
2018-07-26T10:47:10.754Z,29.14
2018-07-26T10:48:10.682Z,29.22
2018-07-26T10:49:10.613Z,29.29
2018-07-26T10:50:10.551Z,29.34
2018-07-26T10:51:10.480Z,29.45
2018-07-26T10:52:10.415Z,29.47
2018-07-26T10:53:10.344Z,29.54
2018-07-26T10:54:10.278Z,29.60
2018-07-26T10:55:10.210Z,29.66
2018-07-26T10:56:10.144Z,29.78
2018-07-26T10:57:10.079Z,29.81
2018-07-26T10:58:10.011Z,29.90
2018-07-26T10:59:09.956Z,29.93
2018-07-26T11:00:09.894Z,30.06
2018-07-26T11:01:09.810Z,30.02
2018-07-26T11:02:09.754Z,30.05
2018-07-26T11:03:09.677Z,30.03
2018-07-26T11:04:09.608Z,30.09
2018-07-26T11:05:09.548Z,30.12
2018-07-26T11:06:09.471Z,30.18
2018-07-26T11:07:09.407Z,30.18
2018-07-26T11:08:09.339Z,30.06
2018-07-26T11:09:09.271Z,30.05
2018-07-26T11:10:09.205Z,29.97
2018-07-26T11:11:09.138Z,29.97
2018-07-26T11:12:09.068Z,30.03
2018-07-26T11:13:09.003Z,30.12
2018-07-26T11:14:08.935Z,30.12
2018-07-26T11:15:08.895Z,30.16
2018-07-26T11:16:08.804Z,30.15
2018-07-26T11:17:08.737Z,30.19
2018-07-26T11:18:08.671Z,30.18
2018-07-26T11:19:08.601Z,30.21
2018-07-26T11:20:08.554Z,30.16
2018-07-26T11:21:08.495Z,30.10
2018-07-26T11:22:08.457Z,30.10
2018-07-26T11:23:08.332Z,30.30
2018-07-26T11:24:08.305Z,30.28
2018-07-26T11:25:08.218Z,30.35
2018-07-26T11:26:08.188Z,30.35
2018-07-26T11:27:08.116Z,30.46
2018-07-26T11:28:08.036Z,30.51
2018-07-26T11:29:08.883Z,30.51
2018-07-26T11:30:07.928Z,30.55
2018-07-26T11:31:07.855Z,30.57
2018-07-26T11:32:07.741Z,30.59
2018-07-26T11:33:07.676Z,30.61
2018-07-26T11:34:08.434Z,30.63
2018-07-26T11:35:07.541Z,30.69
2018-07-26T11:36:07.467Z,30.63
2018-07-26T11:37:07.402Z,30.72
2018-07-26T11:38:07.338Z,30.70
2018-07-26T11:39:07.315Z,30.70
2018-07-26T11:40:07.204Z,30.90
2018-07-26T11:41:07.191Z,30.91
2018-07-26T11:42:07.151Z,31.00
2018-07-26T11:43:07.951Z,30.96
2018-07-26T11:44:07.005Z,31.06
2018-07-26T11:45:06.923Z,31.00
2018-07-26T11:46:06.809Z,30.92
2018-07-26T11:47:06.741Z,30.87
2018-07-26T11:48:06.672Z,30.73
2018-07-26T11:49:06.610Z,30.57
2018-07-26T11:50:06.589Z,30.73
2018-07-26T11:51:06.497Z,30.75
2018-07-26T11:52:06.409Z,30.85
2018-07-26T11:53:06.343Z,30.91
2018-07-26T11:54:06.271Z,30.92
2018-07-26T11:55:06.209Z,31.15
2018-07-26T11:56:06.151Z,31.05
2018-07-26T11:57:06.082Z,31.12
2018-07-26T11:58:06.028Z,31.25
2018-07-26T11:59:05.976Z,31.31
2018-07-26T12:00:05.912Z,31.31
2018-07-26T12:01:05.847Z,31.31
2018-07-26T12:02:05.744Z,31.29
2018-07-26T12:03:05.676Z,31.22
2018-07-26T12:04:05.613Z,31.33
2018-07-26T12:05:05.550Z,31.43
2018-07-26T12:06:05.478Z,31.51
2018-07-26T12:07:05.413Z,31.59
2018-07-26T12:08:05.402Z,31.65
2018-07-26T12:09:05.280Z,31.81
2018-07-26T12:10:05.217Z,31.93
2018-07-26T12:11:05.148Z,32.01
2018-07-26T12:12:05.085Z,32.08
2018-07-26T12:13:05.017Z,32.15
2018-07-26T12:14:05.007Z,32.23
2018-07-26T12:15:04.904Z,32.26
2018-07-26T12:16:04.821Z,32.36
2018-07-26T12:17:04.758Z,32.41
2018-07-26T12:18:04.707Z,32.46
2018-07-26T12:19:04.649Z,32.51
2018-07-26T12:20:04.558Z,32.56
2018-07-26T12:21:04.492Z,32.58
2018-07-26T12:22:04.427Z,32.64
2018-07-26T12:23:04.394Z,32.67
2018-07-26T12:24:04.347Z,32.71
2018-07-26T12:25:04.232Z,32.67
2018-07-26T12:26:04.165Z,32.67
2018-07-26T12:27:04.147Z,32.56
2018-07-26T12:28:04.034Z,32.68
2018-07-26T12:29:03.970Z,32.58
2018-07-26T12:30:03.921Z,32.43
2018-07-26T12:31:03.840Z,32.40
2018-07-26T12:32:03.774Z,32.26
2018-07-26T12:33:03.720Z,32.30
2018-07-26T12:34:04.409Z,32.15
2018-07-26T12:35:03.579Z,32.18
2018-07-26T12:36:03.513Z,32.23
2018-07-26T12:37:03.449Z,32.40
2018-07-26T12:38:03.903Z,32.43
2018-07-26T12:39:03.360Z,32.56
2018-07-26T12:40:03.289Z,32.51
2018-07-26T12:41:03.291Z,32.63
2018-07-26T12:42:03.188Z,32.67
2018-07-26T12:43:03.059Z,32.83
2018-07-26T12:44:03.061Z,32.82
2018-07-26T12:45:03.949Z,32.77
2018-07-26T12:46:03.470Z,32.58
2018-07-26T12:47:02.835Z,32.67
2018-07-26T12:48:02.806Z,32.70
2018-07-26T12:49:02.744Z,32.80
2018-07-26T12:50:02.665Z,32.96
2018-07-26T12:51:02.603Z,33.09
2018-07-26T12:52:02.537Z,33.32